KAKR/AKR METAR and TAF weather

Enter ICAO airport designator
Station Type Date Time Source
KAKR METAR 2018/04/27 00:54 UTC NOAA

KAKR 270054Z AUTO 35006KT 10SM CLR 12/03 A2988 RMK AO2 SLP120 T01220033


Station Type Date Time Source
KAKR Decoded METAR 2018/04/27 00:54 UTC NOAA

AKRON FULTON INTERNATIONAL, OH, United States (KAKR) 41-02N 081-28W 363M
Apr 26, 2018 - 08:54 PM EDT / 2018.04.27 0054 UTC
Wind: from the N (350 degrees) at 7 MPH (6 KT):0
Visibility: 10 mile(s):0
Sky conditions: clear
Temperature: 54.0 F (12.2 C)
Dew Point: 37.9 F (3.3 C)
Relative Humidity: 54%
Pressure (altimeter): 29.88 in. Hg (1011 hPa)
ob: KAKR 270054Z AUTO 35006KT 10SM CLR 12/03 A2988 RMK AO2 SLP120 T01220033
cycle: 1

Station Type Date Time Source
KAKR TAF UTC NOAA

Error!


Example: see airport list